Tumtum, Washington
Current Conditions -  °F | °C
As of 9:53 AM on Tuesday 21 Oct 2014 (Local Time) from KDEW Reporting Station
Overcast Overcast  
Wind Chill: 45°   Ceiling: 1000
Heat Index: 49°   Visibility: 10mi
Dew Point: 45°   Wind: 8mph
Humidity: 86%   Direction: 190°S
Pressure: 29.9"   Gusts: NA
Location:  47.86°N, 117.68°W
Report Text: KDEW 211653Z AUTO 19007KT 10SM OVC010 09/07 A2990 RMK AO2 SLP125 T00940072
Loading
Personal Weather Stations






























Interactive Weather Map
Tropical Storm Tracking
New forecast layout! Learn more

10-Day Weather Forecast

Advertisements
Track Severe Weather on mobile